sensor_id;sensor_type;location;lat;lon;timestamp;pressure;altitude;pressure_sealevel;temperature;humidity
50434;BME280;36361;38.954;-9.002;2023-04-02T00:03:20;101655.28;;;17.21;100.00
50434;BME280;36361;38.954;-9.002;2023-04-02T00:04:22;101656.28;;;17.39;100.00
50434;BME280;36361;38.954;-9.002;2023-04-02T00:05:27;101660.09;;;17.38;100.00
50434;BME280;36361;38.954;-9.002;2023-04-02T00:06:35;101657.94;;;17.40;100.00
50434;BME280;36361;38.954;-9.002;2023-04-02T00:07:39;101653.63;;;17.44;100.00
50434;BME280;36361;38.954;-9.002;2023-04-02T00:08:40;101645.97;;;17.46;100.00
50434;BME280;36361;38.954;-9.002;2023-04-02T00:09:41;101648.47;;;17.35;100.00
50434;BME280;36361;38.954;-9.002;2023-04-02T00:10:58;101646.91;;;17.28;100.00
50434;BME280;36361;38.954;-9.002;2023-04-02T00:12:12;101655.44;;;17.61;100.00
50434;BME280;36361;38.954;-9.002;2023-04-02T00:14:16;101651.97;;;17.43;100.00
50434;BME280;36361;38.954;-9.002;2023-04-02T00:15:17;101656.03;;;17.63;100.00
50434;BME280;36361;38.954;-9.002;2023-04-02T00:16:22;101657.13;;;17.62;100.00
50434;BME280;36361;38.954;-9.002;2023-04-02T00:17:23;101649.13;;;17.61;100.00
50434;BME280;36361;38.954;-9.002;2023-04-02T00:18:25;101655.09;;;17.58;100.00
50434;BME280;36361;38.954;-9.002;2023-04-02T00:19:30;101656.53;;;17.49;100.00
50434;BME280;36361;38.954;-9.002;2023-04-02T00:20:36;101652.44;;;17.40;100.00
50434;BME280;36361;38.954;-9.002;2023-04-02T00:21:41;101652.81;;;17.43;100.00
50434;BME280;36361;38.954;-9.002;2023-04-02T00:22:44;101656.22;;;17.27;100.00
50434;BME280;36361;38.954;-9.002;2023-04-02T00:23:45;101655.94;;;17.05;100.00
50434;BME280;36361;38.954;-9.002;2023-04-02T00:24:50;101660.31;;;16.64;100.00
50434;BME280;36361;38.954;-9.002;2023-04-02T00:25:52;101655.72;;;16.58;100.00
50434;BME280;36361;38.954;-9.002;2023-04-02T00:26:53;101654.06;;;16.75;100.00
50434;BME280;36361;38.954;-9.002;2023-04-02T00:27:55;101658.75;;;16.87;100.00
50434;BME280;36361;38.954;-9.002;2023-04-02T00:28:58;101658.03;;;16.91;100.00
50434;BME280;36361;38.954;-9.002;2023-04-02T00:29:59;101660.31;;;16.64;100.00
50434;BME280;36361;38.954;-9.002;2023-04-02T00:31:00;101656.81;;;16.75;100.00
50434;BME280;36361;38.954;-9.002;2023-04-02T00:32:00;101664.84;;;16.89;100.00
50434;BME280;36361;38.954;-9.002;2023-04-02T00:33:01;101659.41;;;16.70;100.00
50434;BME280;36361;38.954;-9.002;2023-04-02T00:34:03;101654.66;;;16.59;100.00
50434;BME280;36361;38.954;-9.002;2023-04-02T00:35:31;101656.84;;;16.20;100.00
50434;BME280;36361;38.954;-9.002;2023-04-02T00:36:32;101654.09;;;16.20;100.00
50434;BME280;36361;38.954;-9.002;2023-04-02T00:37:34;101652.09;;;16.09;100.00
50434;BME280;36361;38.954;-9.002;2023-04-02T00:38:38;101656.06;;;15.95;100.00
50434;BME280;36361;38.954;-9.002;2023-04-02T00:39:43;101653.69;;;16.17;100.00
50434;BME280;36361;38.954;-9.002;2023-04-02T00:40:45;101643.47;;;16.42;100.00
50434;BME280;36361;38.954;-9.002;2023-04-02T00:41:46;101653.78;;;16.47;100.00
50434;BME280;36361;38.954;-9.002;2023-04-02T00:42:48;101647.03;;;16.43;100.00
50434;BME280;36361;38.954;-9.002;2023-04-02T00:43:50;101647.03;;;16.43;100.00
50434;BME280;36361;38.954;-9.002;2023-04-02T00:44:52;101647.66;;;16.45;100.00
50434;BME280;36361;38.954;-9.002;2023-04-02T00:45:56;101650.34;;;16.15;100.00
50434;BME280;36361;38.954;-9.002;2023-04-02T00:47:02;101642.03;;;16.03;100.00
50434;BME280;36361;38.954;-9.002;2023-04-02T00:48:40;101640.66;;;16.12;100.00
50434;BME280;36361;38.954;-9.002;2023-04-02T00:49:45;101647.22;;;16.30;100.00
50434;BME280;36361;38.954;-9.002;2023-04-02T00:50:47;101646.16;;;16.31;100.00
50434;BME280;36361;38.954;-9.002;2023-04-02T00:51:55;101635.84;;;16.26;100.00
50434;BME280;36361;38.954;-9.002;2023-04-02T00:52:59;101640.41;;;16.14;100.00
50434;BME280;36361;38.954;-9.002;2023-04-02T00:54:05;101636.06;;;16.25;100.00
50434;BME280;36361;38.954;-9.002;2023-04-02T00:55:37;101642.25;;;16.20;100.00
50434;BME280;36361;38.954;-9.002;2023-04-02T00:56:42;101634.44;;;16.35;100.00
50434;BME280;36361;38.954;-9.002;2023-04-02T00:57:44;101635.22;;;16.24;100.00
50434;BME280;36361;38.954;-9.002;2023-04-02T00:58:50;101641.25;;;16.33;100.00
50434;BME280;36361;38.954;-9.002;2023-04-02T01:01:16;101636.84;;;16.32;100.00
50434;BME280;36361;38.954;-9.002;2023-04-02T01:02:23;101634.25;;;16.18;100.00
50434;BME280;36361;38.954;-9.002;2023-04-02T01:04:33;101644.78;;;16.21;100.00
50434;BME280;36361;38.954;-9.002;2023-04-02T01:05:34;101637.13;;;16.05;100.00
50434;BME280;36361;38.954;-9.002;2023-04-02T01:06:36;101632.72;;;16.04;100.00
50434;BME280;36361;38.954;-9.002;2023-04-02T01:08:01;101636.25;;;16.11;100.00
50434;BME280;36361;38.954;-9.002;2023-04-02T01:11:44;101627.50;;;15.78;100.00
50434;BME280;36361;38.954;-9.002;2023-04-02T01:15:41;101630.28;;;16.14;100.00
50434;BME280;36361;38.954;-9.002;2023-04-02T01:16:51;101636.22;;;15.93;100.00
50434;BME280;36361;38.954;-9.002;2023-04-02T01:18:07;101636.53;;;16.03;100.00
50434;BME280;36361;38.954;-9.002;2023-04-02T01:22:13;101629.13;;;16.22;100.00
50434;BME280;36361;38.954;-9.002;2023-04-02T01:24:32;101624.19;;;16.12;100.00
50434;BME280;36361;38.954;-9.002;2023-04-02T01:26:09;101626.31;;;16.10;100.00
50434;BME280;36361;38.954;-9.002;2023-04-02T01:27:19;101627.28;;;16.16;100.00
50434;BME280;36361;38.954;-9.002;2023-04-02T01:30:08;101622.34;;;16.25;100.00
50434;BME280;36361;38.954;-9.002;2023-04-02T01:31:11;101616.28;;;16.34;100.00
50434;BME280;36361;38.954;-9.002;2023-04-02T01:32:16;101613.16;;;16.49;100.00
50434;BME280;36361;38.954;-9.002;2023-04-02T01:33:29;101621.53;;;16.54;100.00
50434;BME280;36361;38.954;-9.002;2023-04-02T01:34:32;101612.91;;;16.69;100.00
50434;BME280;36361;38.954;-9.002;2023-04-02T01:35:36;101617.50;;;16.57;100.00
50434;BME280;36361;38.954;-9.002;2023-04-02T01:38:17;101609.03;;;16.58;100.00
50434;BME280;36361;38.954;-9.002;2023-04-02T01:39:40;101614.59;;;16.70;100.00
50434;BME280;36361;38.954;-9.002;2023-04-02T01:40:51;101611.22;;;16.68;100.00
50434;BME280;36361;38.954;-9.002;2023-04-02T01:45:43;101602.25;;;16.42;100.00
50434;BME280;36361;38.954;-9.002;2023-04-02T01:46:47;101613.59;;;16.64;100.00
50434;BME280;36361;38.954;-9.002;2023-04-02T01:47:49;101606.81;;;16.48;100.00
50434;BME280;36361;38.954;-9.002;2023-04-02T01:48:54;101606.09;;;16.71;100.00
50434;BME280;36361;38.954;-9.002;2023-04-02T01:50:00;101600.22;;;16.98;100.00
50434;BME280;36361;38.954;-9.002;2023-04-02T01:51:05;101603.13;;;16.73;100.00
50434;BME280;36361;38.954;-9.002;2023-04-02T01:52:06;101602.59;;;16.64;100.00
50434;BME280;36361;38.954;-9.002;2023-04-02T01:53:11;101604.81;;;16.74;100.00
50434;BME280;36361;38.954;-9.002;2023-04-02T01:54:15;101602.75;;;16.69;100.00
50434;BME280;36361;38.954;-9.002;2023-04-02T01:55:19;101604.03;;;16.67;100.00
50434;BME280;36361;38.954;-9.002;2023-04-02T01:56:26;101603.28;;;16.60;100.00
50434;BME280;36361;38.954;-9.002;2023-04-02T01:57:27;101603.19;;;16.18;100.00
50434;BME280;36361;38.954;-9.002;2023-04-02T01:58:30;101598.69;;;16.72;100.00
50434;BME280;36361;38.954;-9.002;2023-04-02T01:59:32;101602.03;;;15.89;100.00
50434;BME280;36361;38.954;-9.002;2023-04-02T02:00:42;101605.34;;;15.98;100.00
50434;BME280;36361;38.954;-9.002;2023-04-02T02:01:53;101596.13;;;15.92;100.00
50434;BME280;36361;38.954;-9.002;2023-04-02T02:02:59;101593.50;;;15.97;100.00
50434;BME280;36361;38.954;-9.002;2023-04-02T02:04:01;101594.88;;;16.25;100.00
50434;BME280;36361;38.954;-9.002;2023-04-02T02:05:02;101598.06;;;16.40;100.00
50434;BME280;36361;38.954;-9.002;2023-04-02T02:06:04;101594.31;;;16.34;100.00
50434;BME280;36361;38.954;-9.002;2023-04-02T02:07:12;101591.53;;;16.23;100.00
50434;BME280;36361;38.954;-9.002;2023-04-02T02:08:38;101598.56;;;16.00;100.00
50434;BME280;36361;38.954;-9.002;2023-04-02T02:09:41;101592.53;;;16.10;100.00
50434;BME280;36361;38.954;-9.002;2023-04-02T02:10:42;101597.50;;;16.01;100.00
50434;BME280;36361;38.954;-9.002;2023-04-02T02:11:43;101592.31;;;16.11;100.00
50434;BME280;36361;38.954;-9.002;2023-04-02T02:12:44;101592.00;;;16.01;100.00
50434;BME280;36361;38.954;-9.002;2023-04-02T02:13:52;101591.84;;;15.96;100.00
50434;BME280;36361;38.954;-9.002;2023-04-02T02:14:54;101588.03;;;15.79;100.00
50434;BME280;36361;38.954;-9.002;2023-04-02T02:15:58;101600.84;;;15.85;100.00
50434;BME280;36361;38.954;-9.002;2023-04-02T02:17:02;101593.56;;;15.90;100.00
50434;BME280;36361;38.954;-9.002;2023-04-02T02:18:04;101588.63;;;15.81;100.00
50434;BME280;36361;38.954;-9.002;2023-04-02T02:19:11;101588.09;;;16.09;100.00
50434;BME280;36361;38.954;-9.002;2023-04-02T02:20:17;101583.53;;;15.59;100.00
50434;BME280;36361;38.954;-9.002;2023-04-02T02:21:45;101581.78;;;15.47;100.00
50434;BME280;36361;38.954;-9.002;2023-04-02T02:22:50;101580.69;;;15.29;100.00
50434;BME280;36361;38.954;-9.002;2023-04-02T02:23:51;101579.75;;;15.35;100.00
50434;BME280;36361;38.954;-9.002;2023-04-02T02:24:53;101588.22;;;15.34;100.00
50434;BME280;36361;38.954;-9.002;2023-04-02T02:25:55;101585.88;;;15.13;100.00
50434;BME280;36361;38.954;-9.002;2023-04-02T02:28:32;101595.84;;;15.32;100.00
50434;BME280;36361;38.954;-9.002;2023-04-02T02:29:37;101590.09;;;15.08;100.00
50434;BME280;36361;38.954;-9.002;2023-04-02T02:30:47;101582.63;;;14.97;100.00
50434;BME280;36361;38.954;-9.002;2023-04-02T02:31:51;101589.91;;;15.10;100.00
50434;BME280;36361;38.954;-9.002;2023-04-02T02:33:17;101587.59;;;14.82;100.00
50434;BME280;36361;38.954;-9.002;2023-04-02T02:34:23;101583.16;;;14.81;100.00
50434;BME280;36361;38.954;-9.002;2023-04-02T02:36:58;101577.88;;;14.55;100.00
50434;BME280;36361;38.954;-9.002;2023-04-02T02:39:41;101585.72;;;14.76;100.00
50434;BME280;36361;38.954;-9.002;2023-04-02T02:40:44;101580.31;;;14.63;100.00
50434;BME280;36361;38.954;-9.002;2023-04-02T02:41:54;101588.91;;;14.73;100.00
50434;BME280;36361;38.954;-9.002;2023-04-02T02:43:03;101579.44;;;14.69;100.00
50434;BME280;36361;38.954;-9.002;2023-04-02T02:45:12;101590.34;;;14.82;100.00
50434;BME280;36361;38.954;-9.002;2023-04-02T02:46:17;101594.47;;;14.60;100.00
50434;BME280;36361;38.954;-9.002;2023-04-02T02:47:26;101581.69;;;14.78;100.00
50434;BME280;36361;38.954;-9.002;2023-04-02T02:48:35;101586.53;;;14.83;100.00
50434;BME280;36361;38.954;-9.002;2023-04-02T02:49:41;101591.56;;;14.86;100.00
50434;BME280;36361;38.954;-9.002;2023-04-02T02:50:43;101591.28;;;14.94;100.00
50434;BME280;36361;38.954;-9.002;2023-04-02T02:51:46;101592.75;;;14.97;100.00
50434;BME280;36361;38.954;-9.002;2023-04-02T02:52:56;101583.03;;;15.01;100.00
50434;BME280;36361;38.954;-9.002;2023-04-02T02:54:01;101594.09;;;14.81;100.00
50434;BME280;36361;38.954;-9.002;2023-04-02T02:55:11;101587.13;;;14.85;100.00
50434;BME280;36361;38.954;-9.002;2023-04-02T02:56:30;101582.44;;;14.61;100.00
50434;BME280;36361;38.954;-9.002;2023-04-02T02:57:47;101593.41;;;14.61;100.00
50434;BME280;36361;38.954;-9.002;2023-04-02T02:58:50;101588.28;;;14.71;100.00
50434;BME280;36361;38.954;-9.002;2023-04-02T03:00:06;101586.00;;;14.68;100.00
50434;BME280;36361;38.954;-9.002;2023-04-02T03:01:09;101597.63;;;14.63;100.00
50434;BME280;36361;38.954;-9.002;2023-04-02T03:02:14;101594.94;;;14.43;100.00
50434;BME280;36361;38.954;-9.002;2023-04-02T03:03:23;101593.69;;;14.39;100.00
50434;BME280;36361;38.954;-9.002;2023-04-02T03:04:30;101594.16;;;14.36;100.00
50434;BME280;36361;38.954;-9.002;2023-04-02T03:05:38;101589.16;;;14.20;100.00
50434;BME280;36361;38.954;-9.002;2023-04-02T03:06:50;101581.31;;;14.30;100.00
50434;BME280;36361;38.954;-9.002;2023-04-02T03:07:55;101584.22;;;14.35;100.00
50434;BME280;36361;38.954;-9.002;2023-04-02T03:11:48;101576.47;;;13.74;100.00
50434;BME280;36361;38.954;-9.002;2023-04-02T03:14:57;101582.72;;;13.94;100.00
50434;BME280;36361;38.954;-9.002;2023-04-02T03:17:06;101590.31;;;13.86;100.00
50434;BME280;36361;38.954;-9.002;2023-04-02T03:18:31;101585.91;;;13.78;100.00
50434;BME280;36361;38.954;-9.002;2023-04-02T03:20:52;101583.56;;;13.88;100.00
50434;BME280;36361;38.954;-9.002;2023-04-02T03:22:07;101581.06;;;13.80;100.00
50434;BME280;36361;38.954;-9.002;2023-04-02T03:24:29;101578.16;;;13.62;100.00
50434;BME280;36361;38.954;-9.002;2023-04-02T03:25:38;101586.53;;;13.87;100.00
50434;BME280;36361;38.954;-9.002;2023-04-02T03:27:11;101585.25;;;13.89;100.00
50434;BME280;36361;38.954;-9.002;2023-04-02T03:28:21;101589.88;;;13.89;100.00
50434;BME280;36361;38.954;-9.002;2023-04-02T03:29:35;101580.59;;;13.97;100.00
50434;BME280;36361;38.954;-9.002;2023-04-02T03:32:26;101585.16;;;14.16;100.00
50434;BME280;36361;38.954;-9.002;2023-04-02T03:33:37;101576.09;;;14.15;100.00
50434;BME280;36361;38.954;-9.002;2023-04-02T03:34:48;101580.56;;;14.10;100.00
50434;BME280;36361;38.954;-9.002;2023-04-02T03:36:34;101585.81;;;14.18;100.00
50434;BME280;36361;38.954;-9.002;2023-04-02T03:37:42;101587.28;;;14.14;100.00
50434;BME280;36361;38.954;-9.002;2023-04-02T03:40:06;101587.44;;;14.26;100.00
50434;BME280;36361;38.954;-9.002;2023-04-02T03:42:19;101588.97;;;14.15;100.00
50434;BME280;36361;38.954;-9.002;2023-04-02T03:43:28;101587.72;;;14.17;100.00
50434;BME280;36361;38.954;-9.002;2023-04-02T03:44:42;101591.47;;;14.16;100.00
50434;BME280;36361;38.954;-9.002;2023-04-02T03:45:50;101591.69;;;14.21;100.00
50434;BME280;36361;38.954;-9.002;2023-04-02T03:46:57;101588.53;;;14.18;100.00
50434;BME280;36361;38.954;-9.002;2023-04-02T03:49:18;101597.50;;;14.45;100.00
50434;BME280;36361;38.954;-9.002;2023-04-02T03:50:37;101578.00;;;14.66;100.00
50434;BME280;36361;38.954;-9.002;2023-04-02T03:52:51;101579.63;;;14.74;100.00
50434;BME280;36361;38.954;-9.002;2023-04-02T03:53:52;101585.28;;;14.79;100.00
50434;BME280;36361;38.954;-9.002;2023-04-02T03:54:55;101581.13;;;14.70;100.00
50434;BME280;36361;38.954;-9.002;2023-04-02T03:55:58;101589.41;;;14.63;100.00
50434;BME280;36361;38.954;-9.002;2023-04-02T03:57:00;101588.38;;;14.58;100.00
50434;BME280;36361;38.954;-9.002;2023-04-02T03:58:20;101586.25;;;14.60;100.00
50434;BME280;36361;38.954;-9.002;2023-04-02T03:59:36;101598.75;;;14.49;100.00
50434;BME280;36361;38.954;-9.002;2023-04-02T04:04:17;101584.78;;;14.57;100.00
50434;BME280;36361;38.954;-9.002;2023-04-02T04:05:29;101597.06;;;14.48;100.00
50434;BME280;36361;38.954;-9.002;2023-04-02T04:06:35;101587.69;;;14.62;100.00
50434;BME280;36361;38.954;-9.002;2023-04-02T04:07:40;101600.03;;;14.33;100.00
50434;BME280;36361;38.954;-9.002;2023-04-02T04:10:02;101595.78;;;14.50;100.00
50434;BME280;36361;38.954;-9.002;2023-04-02T04:11:08;101596.84;;;14.49;100.00
50434;BME280;36361;38.954;-9.002;2023-04-02T04:13:38;101598.06;;;14.54;100.00
50434;BME280;36361;38.954;-9.002;2023-04-02T04:14:47;101598.22;;;14.14;100.00
50434;BME280;36361;38.954;-9.002;2023-04-02T04:16:15;101598.78;;;14.36;100.00
50434;BME280;36361;38.954;-9.002;2023-04-02T04:17:29;101600.47;;;14.37;100.00
50434;BME280;36361;38.954;-9.002;2023-04-02T04:18:46;101603.94;;;14.06;100.00
50434;BME280;36361;38.954;-9.002;2023-04-02T04:20:19;101604.63;;;13.94;100.00
50434;BME280;36361;38.954;-9.002;2023-04-02T04:21:25;101603.38;;;13.90;100.00
50434;BME280;36361;38.954;-9.002;2023-04-02T04:22:54;101604.00;;;13.99;100.00
50434;BME280;36361;38.954;-9.002;2023-04-02T04:24:17;101611.81;;;13.82;100.00
50434;BME280;36361;38.954;-9.002;2023-04-02T04:25:26;101610.16;;;13.61;100.00
50434;BME280;36361;38.954;-9.002;2023-04-02T04:27:41;101604.69;;;13.15;100.00
50434;BME280;36361;38.954;-9.002;2023-04-02T04:30:28;101598.78;;;13.05;100.00
50434;BME280;36361;38.954;-9.002;2023-04-02T04:31:49;101598.59;;;13.00;100.00
50434;BME280;36361;38.954;-9.002;2023-04-02T04:33:00;101593.94;;;12.87;100.00
50434;BME280;36361;38.954;-9.002;2023-04-02T04:34:09;101594.56;;;12.96;100.00
50434;BME280;36361;38.954;-9.002;2023-04-02T04:35:24;101594.59;;;13.09;100.00
50434;BME280;36361;38.954;-9.002;2023-04-02T04:36:32;101593.94;;;12.94;100.00
50434;BME280;36361;38.954;-9.002;2023-04-02T04:37:45;101588.66;;;12.66;100.00
50434;BME280;36361;38.954;-9.002;2023-04-02T04:39:05;101580.22;;;12.61;100.00
50434;BME280;36361;38.954;-9.002;2023-04-02T04:40:21;101578.81;;;12.71;100.00
50434;BME280;36361;38.954;-9.002;2023-04-02T04:41:29;101574.56;;;12.56;100.00
50434;BME280;36361;38.954;-9.002;2023-04-02T04:42:35;101581.97;;;12.88;100.00
50434;BME280;36361;38.954;-9.002;2023-04-02T04:44:15;101581.13;;;13.14;100.00
50434;BME280;36361;38.954;-9.002;2023-04-02T04:46:48;101583.84;;;12.88;100.00
50434;BME280;36361;38.954;-9.002;2023-04-02T04:48:00;101587.44;;;12.81;100.00
50434;BME280;36361;38.954;-9.002;2023-04-02T04:50:41;101589.84;;;12.43;100.00
50434;BME280;36361;38.954;-9.002;2023-04-02T04:51:53;101587.50;;;12.34;100.00
50434;BME280;36361;38.954;-9.002;2023-04-02T04:53:04;101584.81;;;12.40;100.00
50434;BME280;36361;38.954;-9.002;2023-04-02T04:54:13;101582.69;;;12.29;100.00
50434;BME280;36361;38.954;-9.002;2023-04-02T04:55:28;101576.00;;;12.45;100.00
50434;BME280;36361;38.954;-9.002;2023-04-02T04:56:33;101576.00;;;12.45;100.00
50434;BME280;36361;38.954;-9.002;2023-04-02T04:57:47;101582.13;;;12.60;100.00
50434;BME280;36361;38.954;-9.002;2023-04-02T04:58:52;101580.66;;;12.58;100.00
50434;BME280;36361;38.954;-9.002;2023-04-02T04:59:59;101580.25;;;12.67;100.00
50434;BME280;36361;38.954;-9.002;2023-04-02T05:02:42;101578.13;;;12.56;100.00
50434;BME280;36361;38.954;-9.002;2023-04-02T05:05:16;101572.03;;;12.47;100.00
50434;BME280;36361;38.954;-9.002;2023-04-02T05:07:31;101577.47;;;12.47;100.00
50434;BME280;36361;38.954;-9.002;2023-04-02T05:08:40;101573.13;;;12.66;100.00
50434;BME280;36361;38.954;-9.002;2023-04-02T05:10:27;101576.88;;;12.59;100.00
50434;BME280;36361;38.954;-9.002;2023-04-02T05:11:33;101578.16;;;12.63;100.00
50434;BME280;36361;38.954;-9.002;2023-04-02T05:12:42;101588.25;;;12.89;100.00
50434;BME280;36361;38.954;-9.002;2023-04-02T05:13:49;101577.56;;;13.00;100.00
50434;BME280;36361;38.954;-9.002;2023-04-02T05:15:17;101591.22;;;13.14;100.00
50434;BME280;36361;38.954;-9.002;2023-04-02T05:16:32;101584.91;;;13.13;100.00
50434;BME280;36361;38.954;-9.002;2023-04-02T05:18:13;101578.56;;;12.66;100.00
50434;BME280;36361;38.954;-9.002;2023-04-02T05:19:50;101581.06;;;12.61;100.00
50434;BME280;36361;38.954;-9.002;2023-04-02T05:21:06;101574.34;;;12.57;100.00
50434;BME280;36361;38.954;-9.002;2023-04-02T05:25:33;101585.28;;;12.57;100.00
50434;BME280;36361;38.954;-9.002;2023-04-02T05:26:42;101576.00;;;12.51;100.00
50434;BME280;36361;38.954;-9.002;2023-04-02T05:29:21;101570.56;;;12.58;100.00
50434;BME280;36361;38.954;-9.002;2023-04-02T05:31:43;101578.56;;;12.53;100.00
50434;BME280;36361;38.954;-9.002;2023-04-02T05:33:23;101573.94;;;12.60;100.00
50434;BME280;36361;38.954;-9.002;2023-04-02T05:34:33;101574.97;;;12.59;100.00
50434;BME280;36361;38.954;-9.002;2023-04-02T05:35:41;101580.19;;;12.41;100.00
50434;BME280;36361;38.954;-9.002;2023-04-02T05:36:44;101582.34;;;12.59;100.00
50434;BME280;36361;38.954;-9.002;2023-04-02T05:37:47;101581.31;;;12.66;100.00
50434;BME280;36361;38.954;-9.002;2023-04-02T05:38:49;101581.75;;;12.76;100.00
50434;BME280;36361;38.954;-9.002;2023-04-02T05:40:02;101583.84;;;12.88;100.00
50434;BME280;36361;38.954;-9.002;2023-04-02T05:41:36;101589.13;;;12.82;100.00
50434;BME280;36361;38.954;-9.002;2023-04-02T05:42:42;101582.78;;;12.62;100.00
50434;BME280;36361;38.954;-9.002;2023-04-02T05:43:48;101591.56;;;12.51;100.00
50434;BME280;36361;38.954;-9.002;2023-04-02T05:46:06;101586.34;;;12.69;100.00
50434;BME280;36361;38.954;-9.002;2023-04-02T05:47:19;101579.81;;;12.57;100.00
50434;BME280;36361;38.954;-9.002;2023-04-02T05:48:34;101573.94;;;12.60;100.00
50434;BME280;36361;38.954;-9.002;2023-04-02T05:50:55;101579.41;;;12.53;100.00
50434;BME280;36361;38.954;-9.002;2023-04-02T05:52:03;101574.63;;;12.95;100.00
50434;BME280;36361;38.954;-9.002;2023-04-02T05:54:56;101579.19;;;12.68;100.00
50434;BME280;36361;38.954;-9.002;2023-04-02T05:56:10;101575.22;;;12.77;100.00
50434;BME280;36361;38.954;-9.002;2023-04-02T05:57:19;101587.44;;;13.15;100.00
50434;BME280;36361;38.954;-9.002;2023-04-02T06:00:14;101584.84;;;12.47;100.00
50434;BME280;36361;38.954;-9.002;2023-04-02T06:01:24;101588.25;;;12.62;100.00
50434;BME280;36361;38.954;-9.002;2023-04-02T06:02:33;101587.81;;;12.78;100.00
50434;BME280;36361;38.954;-9.002;2023-04-02T06:04:01;101571.88;;;12.75;100.00
50434;BME280;36361;38.954;-9.002;2023-04-02T06:05:15;101577.78;;;13.12;100.00
50434;BME280;36361;38.954;-9.002;2023-04-02T06:07:32;101579.47;;;13.13;100.00
50434;BME280;36361;38.954;-9.002;2023-04-02T06:08:41;101584.53;;;13.29;100.00
50434;BME280;36361;38.954;-9.002;2023-04-02T06:10:06;101591.25;;;13.47;100.00
50434;BME280;36361;38.954;-9.002;2023-04-02T06:11:17;101587.28;;;14.14;100.00
50434;BME280;36361;38.954;-9.002;2023-04-02T06:13:40;101583.19;;;15.31;100.00
50434;BME280;36361;38.954;-9.002;2023-04-02T06:14:41;101592.19;;;15.63;100.00
50434;BME280;36361;38.954;-9.002;2023-04-02T06:15:43;101594.97;;;14.82;100.00
50434;BME280;36361;38.954;-9.002;2023-04-02T06:16:49;101595.16;;;13.90;100.00
50434;BME280;36361;38.954;-9.002;2023-04-02T06:19:09;101598.31;;;13.87;100.00
50434;BME280;36361;38.954;-9.002;2023-04-02T06:20:14;101595.03;;;13.46;100.00
50434;BME280;36361;38.954;-9.002;2023-04-02T06:21:20;101598.19;;;13.43;100.00
50434;BME280;36361;38.954;-9.002;2023-04-02T06:22:34;101608.31;;;13.35;100.00
50434;BME280;36361;38.954;-9.002;2023-04-02T06:23:40;101605.94;;;12.93;100.00
50434;BME280;36361;38.954;-9.002;2023-04-02T06:24:44;101605.56;;;13.49;100.00
50434;BME280;36361;38.954;-9.002;2023-04-02T06:27:04;101601.31;;;13.13;100.00
50434;BME280;36361;38.954;-9.002;2023-04-02T06:28:13;101600.47;;;12.93;100.00
50434;BME280;36361;38.954;-9.002;2023-04-02T06:29:36;101603.84;;;13.15;100.00
50434;BME280;36361;38.954;-9.002;2023-04-02T06:30:43;101598.84;;;13.31;100.00
50434;BME280;36361;38.954;-9.002;2023-04-02T06:31:54;101593.16;;;13.20;100.00
50434;BME280;36361;38.954;-9.002;2023-04-02T06:32:57;101593.31;;;12.92;100.00
50434;BME280;36361;38.954;-9.002;2023-04-02T06:33:59;101590.63;;;13.18;100.00
50434;BME280;36361;38.954;-9.002;2023-04-02T06:35:01;101597.78;;;13.32;100.00
50434;BME280;36361;38.954;-9.002;2023-04-02T06:36:02;101594.53;;;13.88;100.00
50434;BME280;36361;38.954;-9.002;2023-04-02T06:37:35;101594.72;;;14.51;100.00
50434;BME280;36361;38.954;-9.002;2023-04-02T06:38:46;101595.41;;;13.76;100.00
50434;BME280;36361;38.954;-9.002;2023-04-02T06:39:48;101591.22;;;13.60;100.00
50434;BME280;36361;38.954;-9.002;2023-04-02T06:40:52;101592.69;;;13.16;100.00
50434;BME280;36361;38.954;-9.002;2023-04-02T06:42:25;101594.19;;;14.23;100.00
50434;BME280;36361;38.954;-9.002;2023-04-02T06:44:12;101596.69;;;13.60;100.00
50434;BME280;36361;38.954;-9.002;2023-04-02T06:45:32;101594.06;;;14.05;100.00
50434;BME280;36361;38.954;-9.002;2023-04-02T06:47:06;101593.22;;;14.04;100.00
50434;BME280;36361;38.954;-9.002;2023-04-02T06:48:15;101597.56;;;13.41;100.00
50434;BME280;36361;38.954;-9.002;2023-04-02T06:49:24;101600.47;;;13.13;100.00
50434;BME280;36361;38.954;-9.002;2023-04-02T06:50:47;101595.47;;;13.23;100.00
50434;BME280;36361;38.954;-9.002;2023-04-02T06:51:52;101599.19;;;13.81;100.00
50434;BME280;36361;38.954;-9.002;2023-04-02T06:53:04;101608.03;;;13.83;100.00
50434;BME280;36361;38.954;-9.002;2023-04-02T06:54:15;101599.59;;;14.81;100.00
50434;BME280;36361;38.954;-9.002;2023-04-02T06:56:35;101616.78;;;14.12;100.00
50434;BME280;36361;38.954;-9.002;2023-04-02T06:57:38;101612.38;;;13.98;100.00
50434;BME280;36361;38.954;-9.002;2023-04-02T06:58:38;101609.00;;;14.09;100.00
50434;BME280;36361;38.954;-9.002;2023-04-02T06:59:39;101621.78;;;14.28;100.00
50434;BME280;36361;38.954;-9.002;2023-04-02T07:00:47;101618.97;;;14.48;100.00
50434;BME280;36361;38.954;-9.002;2023-04-02T07:02:01;101618.47;;;14.06;100.00
50434;BME280;36361;38.954;-9.002;2023-04-02T07:03:14;101614.94;;;14.50;100.00
50434;BME280;36361;38.954;-9.002;2023-04-02T07:04:17;101605.97;;;14.75;100.00
50434;BME280;36361;38.954;-9.002;2023-04-02T07:05:20;101622.56;;;14.48;100.00
50434;BME280;36361;38.954;-9.002;2023-04-02T07:06:21;101617.94;;;15.12;100.00
50434;BME280;36361;38.954;-9.002;2023-04-02T07:07:24;101630.06;;;14.60;100.00
50434;BME280;36361;38.954;-9.002;2023-04-02T07:08:25;101614.44;;;14.67;100.00
50434;BME280;36361;38.954;-9.002;2023-04-02T07:09:26;101614.63;;;15.03;100.00
50434;BME280;36361;38.954;-9.002;2023-04-02T07:10:29;101623.00;;;14.32;100.00